Time;durP1;ratioP1;P1;durP2;ratioP2;P2;SDS_P1;SDS_P2;PMS_P1;PMS_P2;Temp;Humidity;BMP_temperature;BMP_pressure;BME280_temperature;BME280_humidity;BME280_pressure;Samples;Min_cycle;Max_cycle;Signal;HPM_P1;HPM_P2
2021/11/14 00:02:24;;;;;;;25.93;23.73;;;9.20;96.90;;;;;;5009029;28;20487;-72
2021/11/14 00:04:51;;;;;;;24.97;23.30;;;9.10;97.10;;;;;;5008391;28;20457;-73
2021/11/14 00:07:19;;;;;;;24.43;22.90;;;9.00;97.30;;;;;;5009351;28;20495;-74
2021/11/14 00:09:47;;;;;;;23.50;21.90;;;8.90;97.50;;;;;;5008564;28;20463;-74
2021/11/14 00:12:13;;;;;;;24.87;22.97;;;8.90;97.90;;;;;;5009412;28;20969;-74
2021/11/14 00:14:41;;;;;;;22.93;21.23;;;8.90;98.00;;;;;;5008124;28;20464;-73
2021/11/14 00:17:08;;;;;;;25.13;23.20;;;9.00;97.90;;;;;;5009217;28;20474;-73
2021/11/14 00:19:35;;;;;;;24.60;22.83;;;9.10;97.80;;;;;;5008395;28;20472;-72
2021/11/14 00:22:01;;;;;;;24.97;23.07;;;9.20;97.10;;;;;;5010078;28;20468;-73
2021/11/14 00:24:30;;;;;;;25.87;23.83;;;9.10;97.10;;;;;;5007300;28;20475;-72
2021/11/14 00:26:57;;;;;;;26.20;23.90;;;9.10;97.30;;;;;;5007629;28;20465;-73
2021/11/14 00:29:23;;;;;;;26.67;24.73;;;9.10;97.50;;;;;;5008355;28;20461;-73
2021/11/14 00:31:50;;;;;;;25.90;23.80;;;9.10;97.50;;;;;;5009184;28;20469;-73
2021/11/14 00:34:17;;;;;;;27.43;25.33;;;9.10;97.60;;;;;;5000400;28;20946;-73
2021/11/14 00:36:45;;;;;;;25.37;23.43;;;9.20;97.40;;;;;;5009757;28;20460;-73
2021/11/14 00:39:17;;;;;;;26.37;24.47;;;9.20;97.30;;;;;;5007563;28;20812;-72
2021/11/14 00:41:46;;;;;;;25.60;23.70;;;9.20;97.20;;;;;;5008751;28;20457;-74
2021/11/14 00:44:14;;;;;;;27.87;25.73;;;9.30;97.20;;;;;;5006231;28;20488;-74
2021/11/14 00:46:41;;;;;;;26.90;24.90;;;9.30;97.20;;;;;;5007842;28;20448;-74
2021/11/14 00:49:08;;;;;;;27.73;25.57;;;9.30;97.10;;;;;;5007627;28;20471;-74
2021/11/14 00:51:35;;;;;;;27.67;25.47;;;9.30;97.00;;;;;;5009157;28;20860;-74
2021/11/14 00:54:06;;;;;;;28.17;26.17;;;9.30;96.80;;;;;;5007305;28;20548;-74
2021/11/14 00:56:33;;;;;;;27.27;25.23;;;9.30;96.70;;;;;;5008179;28;20449;-74
2021/11/14 00:59:01;;;;;;;25.37;23.50;;;9.30;96.70;;;;;;5007789;28;20959;-74
2021/11/14 01:01:29;;;;;;;26.47;24.37;;;9.20;96.60;;;;;;5009257;28;20849;-74
2021/11/14 01:03:57;;;;;;;27.20;25.10;;;9.30;96.50;;;;;;5005542;28;20495;-75
2021/11/14 01:06:24;;;;;;;27.30;25.10;;;9.30;96.40;;;;;;5007945;28;20551;-75
2021/11/14 01:08:52;;;;;;;28.80;26.50;;;9.30;96.60;;;;;;5007303;28;20965;-74
2021/11/14 01:11:18;;;;;;;29.70;27.50;;;9.30;96.90;;;;;;5009325;28;20460;-73
2021/11/14 01:13:47;;;;;;;30.83;28.33;;;9.30;96.80;;;;;;5003536;28;21207;-73
2021/11/14 01:16:18;;;;;;;32.10;29.33;;;9.30;96.80;;;;;;5000064;28;20457;-72
2021/11/14 01:18:45;;;;;;;32.80;29.80;;;9.30;96.90;;;;;;5007279;28;21013;-73
2021/11/14 01:21:15;;;;;;;32.60;29.90;;;9.30;97.00;;;;;;5008933;28;20476;-72
2021/11/14 01:23:44;;;;;;;31.93;29.23;;;9.30;97.00;;;;;;5005345;28;20472;-73
2021/11/14 01:26:11;;;;;;;32.73;29.93;;;9.30;97.00;;;;;;5008468;28;20459;-74
2021/11/14 01:28:38;;;;;;;30.70;28.37;;;9.30;97.00;;;;;;5007350;28;20474;-75
2021/11/14 01:31:06;;;;;;;31.73;29.20;;;9.30;97.20;;;;;;5008197;28;20449;-74
2021/11/14 01:33:35;;;;;;;31.00;28.50;;;9.20;97.30;;;;;;5005767;28;20480;-74
2021/11/14 01:36:03;;;;;;;32.23;29.40;;;9.20;97.30;;;;;;5008463;28;20913;-74
2021/11/14 01:38:31;;;;;;;32.10;29.40;;;9.10;97.80;;;;;;5007140;28;20468;-74
2021/11/14 01:41:01;;;;;;;33.20;30.53;;;9.10;97.90;;;;;;5006426;28;20483;-74
2021/11/14 01:43:32;;;;;;;32.40;29.90;;;9.10;97.70;;;;;;5004885;28;20590;-74
2021/11/14 01:46:00;;;;;;;32.97;30.07;;;9.20;97.60;;;;;;4998213;28;20537;-74
2021/11/14 01:48:27;;;;;;;34.80;31.67;;;9.20;97.20;;;;;;5006183;28;20477;-74
2021/11/14 01:50:56;;;;;;;32.50;29.90;;;9.10;97.60;;;;;;5008960;28;20452;-74
2021/11/14 01:53:24;;;;;;;31.38;28.67;;;9.10;97.80;;;;;;5007602;28;20835;-73
2021/11/14 01:55:52;;;;;;;34.05;31.13;;;9.00;97.90;;;;;;5012664;28;20202;-74
2021/11/14 01:58:22;;;;;;;33.37;30.77;;;9.00;97.90;;;;;;5010627;28;20204;-74
2021/11/14 02:00:53;;;;;;;33.83;30.73;;;9.10;97.70;;;;;;5000611;28;20476;-74
2021/11/14 02:03:21;;;;;;;34.90;31.70;;;9.10;97.90;;;;;;5007766;28;20508;-74
2021/11/14 02:05:48;;;;;;;35.38;32.42;;;9.00;98.00;;;;;;5000246;28;20456;-74
2021/11/14 02:08:17;;;;;;;34.08;31.17;;;9.00;97.90;;;;;;5011190;28;20331;-76
2021/11/14 02:10:46;;;;;;;34.20;31.33;;;9.00;98.00;;;;;;5009985;28;20201;-74
2021/11/14 02:13:14;;;;;;;35.35;32.25;;;9.00;98.10;;;;;;5010583;28;20483;-75
2021/11/14 02:15:41;;;;;;;33.30;30.50;;;9.00;98.00;;;;;;5012158;28;20194;-74
2021/11/14 02:18:11;;;;;;;35.20;32.07;;;9.00;97.80;;;;;;5011663;28;20978;-74
2021/11/14 02:20:41;;;;;;;34.40;31.42;;;9.00;97.70;;;;;;4999428;28;20480;-74
2021/11/14 02:23:09;;;;;;;34.90;31.80;;;9.00;97.90;;;;;;5010789;28;20703;-74
2021/11/14 02:25:37;;;;;;;35.10;32.10;;;9.00;97.90;;;;;;5010605;28;20475;-74
2021/11/14 02:28:05;;;;;;;35.40;32.40;;;9.00;97.80;;;;;;5008276;28;20972;-74
2021/11/14 02:30:32;;;;;;;34.60;31.83;;;9.00;97.80;;;;;;5009753;28;20806;-73
2021/11/14 02:33:00;;;;;;;35.30;32.23;;;9.10;97.50;;;;;;5010195;28;20485;-72
2021/11/14 02:35:27;;;;;;;37.00;33.87;;;9.10;97.60;;;;;;5009707;28;20453;-73
2021/11/14 02:37:56;;;;;;;35.80;32.67;;;9.10;97.80;;;;;;5011898;28;20504;-72
2021/11/14 02:40:23;;;;;;;33.70;31.00;;;9.00;97.80;;;;;;5008989;28;20468;-73
2021/11/14 02:42:51;;;;;;;35.70;32.80;;;9.00;97.90;;;;;;5011457;28;20483;-73
2021/11/14 02:45:21;;;;;;;34.57;31.67;;;9.10;97.80;;;;;;5005755;28;20469;-73
2021/11/14 02:47:50;;;;;;;34.33;31.40;;;9.10;97.60;;;;;;5010723;28;20468;-73
2021/11/14 02:50:18;;;;;;;35.97;32.97;;;9.10;97.50;;;;;;5010187;28;20942;-73
2021/11/14 02:52:45;;;;;;;35.73;32.60;;;9.10;97.50;;;;;;5009867;28;20479;-72
2021/11/14 02:55:18;;;;;;;34.00;31.07;;;9.20;97.30;;;;;;5009692;28;20468;-73
2021/11/14 02:57:45;;;;;;;36.03;33.03;;;9.20;97.20;;;;;;5010089;28;20456;-72
2021/11/14 03:00:15;;;;;;;36.33;33.10;;;9.10;96.90;;;;;;5009338;28;20827;-73
2021/11/14 03:02:42;;;;;;;34.70;31.43;;;9.10;97.10;;;;;;5009825;28;20512;-74
2021/11/14 03:05:11;;;;;;;36.03;33.00;;;9.00;97.10;;;;;;5008604;28;20466;-74
2021/11/14 03:07:38;;;;;;;36.00;33.10;;;9.10;97.10;;;;;;5011306;28;20459;-74
2021/11/14 03:10:09;;;;;;;36.43;33.37;;;9.00;96.70;;;;;;5009849;28;20461;-74
2021/11/14 03:12:37;;;;;;;35.10;32.07;;;9.00;97.10;;;;;;5002291;28;20484;-74
2021/11/14 03:15:05;;;;;;;34.63;31.73;;;9.00;96.90;;;;;;5008978;28;20567;-74
2021/11/14 03:17:32;;;;;;;35.73;32.83;;;9.10;96.90;;;;;;5007388;28;20457;-74
2021/11/14 03:19:59;;;;;;;35.77;32.77;;;9.10;96.70;;;;;;5009234;28;20461;-74
2021/11/14 03:22:26;;;;;;;36.67;33.47;;;9.10;96.70;;;;;;5009937;28;20492;-74
2021/11/14 03:24:53;;;;;;;34.97;32.17;;;9.10;96.70;;;;;;5006037;28;20539;-74
2021/11/14 03:27:22;;;;;;;37.20;32.40;;;9.10;96.70;;;;;;5010593;28;20456;-74
2021/11/14 03:29:51;;;;;;;36.20;33.00;;;9.10;96.70;;;;;;5009924;28;20467;-74
2021/11/14 03:32:18;;;;;;;35.33;32.47;;;9.10;96.50;;;;;;5007492;28;20487;-74
2021/11/14 03:34:45;;;;;;;35.17;32.20;;;9.20;96.40;;;;;;5008527;28;20457;-74
2021/11/14 03:37:14;;;;;;;37.47;34.00;;;9.20;96.50;;;;;;5010628;28;20849;-74
2021/11/14 03:39:41;;;;;;;34.90;31.97;;;9.20;96.50;;;;;;5008820;28;20465;-74
2021/11/14 03:42:08;;;;;;;35.97;32.97;;;9.20;96.40;;;;;;5009717;28;20484;-74
2021/11/14 03:44:36;;;;;;;36.43;33.53;;;9.20;96.40;;;;;;5005701;28;20464;-74
2021/11/14 03:47:05;;;;;;;34.97;32.00;;;9.20;96.30;;;;;;5008710;28;20950;-74
2021/11/14 03:49:31;;;;;;;35.30;32.30;;;9.20;96.30;;;;;;5008768;28;20476;-74
2021/11/14 03:51:58;;;;;;;37.27;33.77;;;9.10;96.40;;;;;;5009784;28;20449;-74
2021/11/14 03:54:25;;;;;;;36.87;33.77;;;9.10;96.50;;;;;;5006751;28;20531;-74
2021/11/14 03:56:52;;;;;;;33.50;30.90;;;9.10;96.40;;;;;;5009577;28;20565;-74
2021/11/14 03:59:19;;;;;;;35.53;32.30;;;9.20;96.30;;;;;;5009090;28;20461;-74
2021/11/14 04:01:46;;;;;;;36.10;33.20;;;9.20;96.30;;;;;;5009660;28;20491;-74
2021/11/14 04:04:15;;;;;;;37.00;32.53;;;9.20;96.20;;;;;;5006279;28;20496;-74
2021/11/14 04:06:42;;;;;;;36.10;33.00;;;9.20;96.50;;;;;;5010498;28;20453;-74
2021/11/14 04:09:08;;;;;;;34.97;32.17;;;9.20;96.60;;;;;;5008424;28;20453;-74
2021/11/14 04:11:35;;;;;;;34.83;31.70;;;9.30;96.50;;;;;;5009813;28;20548;-74
2021/11/14 04:14:02;;;;;;;35.23;32.33;;;9.30;96.40;;;;;;5007727;28;20487;-74
2021/11/14 04:16:29;;;;;;;36.57;33.47;;;9.20;96.30;;;;;;5008938;28;20464;-74
2021/11/14 04:18:56;;;;;;;36.13;33.00;;;9.10;96.70;;;;;;5008928;28;20962;-75
2021/11/14 04:21:25;;;;;;;35.63;32.83;;;9.10;97.00;;;;;;5008436;28;21012;-74
2021/11/14 04:23:52;;;;;;;36.97;33.47;;;9.10;97.00;;;;;;5007853;28;20484;-74
2021/11/14 04:26:20;;;;;;;35.30;32.37;;;9.10;96.90;;;;;;5010452;28;20509;-74
2021/11/14 04:28:48;;;;;;;35.90;33.00;;;9.10;96.90;;;;;;5007511;28;20460;-73
2021/11/14 04:31:15;;;;;;;36.00;32.77;;;9.10;96.90;;;;;;5009636;28;20444;-73
2021/11/14 04:33:42;;;;;;;34.13;31.63;;;9.10;96.70;;;;;;5007197;28;21009;-73
2021/11/14 04:36:09;;;;;;;34.87;32.07;;;9.20;96.60;;;;;;5009119;28;20539;-73
2021/11/14 04:38:37;;;;;;;36.17;33.07;;;9.20;96.40;;;;;;5004350;28;20548;-72
2021/11/14 04:41:05;;;;;;;36.33;33.23;;;9.20;96.40;;;;;;5009137;28;21693;-72
2021/11/14 04:43:32;;;;;;;36.47;33.50;;;9.10;96.50;;;;;;5005534;28;20491;-73
2021/11/14 04:45:59;;;;;;;36.43;33.43;;;9.10;96.50;;;;;;5009768;28;20456;-72
2021/11/14 04:48:26;;;;;;;36.27;33.27;;;9.10;97.00;;;;;;5007618;28;20457;-72
2021/11/14 04:50:53;;;;;;;36.53;33.03;;;9.10;96.70;;;;;;5009048;28;20481;-73
2021/11/14 04:53:21;;;;;;;36.20;33.07;;;9.10;96.50;;;;;;5007123;28;20483;-72
2021/11/14 04:55:49;;;;;;;36.10;33.03;;;9.00;96.50;;;;;;5009905;28;20464;-72
2021/11/14 04:58:17;;;;;;;37.80;34.60;;;8.90;97.10;;;;;;5008258;28;20460;-72
2021/11/14 05:00:50;;;;;;;44.17;34.43;;;8.90;97.20;;;;;;4996645;28;20488;-72
2021/11/14 05:03:17;;;;;;;36.97;33.87;;;8.90;97.60;;;;;;5002345;28;21010;-72
2021/11/14 05:05:44;;;;;;;37.27;34.10;;;9.00;98.50;;;;;;5009691;28;20539;-72
2021/11/14 05:08:12;;;;;;;35.57;32.50;;;9.00;98.10;;;;;;5009069;28;20461;-73
2021/11/14 05:10:40;;;;;;;36.30;33.30;;;9.10;97.80;;;;;;5008127;28;20962;-72
2021/11/14 05:13:08;;;;;;;35.60;32.70;;;9.10;97.60;;;;;;5008406;28;20944;-72
2021/11/14 05:15:36;;;;;;;37.30;34.00;;;9.10;97.60;;;;;;5007868;28;20480;-72
2021/11/14 05:18:03;;;;;;;37.60;34.50;;;9.10;97.50;;;;;;5009219;28;20535;-73
2021/11/14 05:20:30;;;;;;;36.73;33.53;;;9.10;97.10;;;;;;5007044;28;20556;-73
2021/11/14 05:22:57;;;;;;;35.97;32.93;;;9.10;97.10;;;;;;5007198;28;20491;-72
2021/11/14 05:25:24;;;;;;;36.37;33.10;;;9.00;97.20;;;;;;5007447;28;20457;-72
2021/11/14 05:27:51;;;;;;;35.50;32.70;;;9.10;96.90;;;;;;5001604;28;20488;-72
2021/11/14 05:30:19;;;;;;;39.70;34.70;;;9.00;96.70;;;;;;5014037;28;20544;-72
2021/11/14 05:32:46;;;;;;;35.28;32.28;;;9.10;97.00;;;;;;5014552;28;21245;-72
2021/11/14 05:35:14;;;;;;;37.73;34.40;;;9.10;97.60;;;;;;5013334;28;20297;-72
2021/11/14 05:37:41;;;;;;;36.10;32.97;;;9.10;97.40;;;;;;5015363;28;20898;-72
2021/11/14 05:40:09;;;;;;;35.43;32.40;;;9.10;97.20;;;;;;5014115;28;20460;-72
2021/11/14 05:42:37;;;;;;;35.17;31.90;;;9.10;97.10;;;;;;5014124;28;20492;-72
2021/11/14 05:45:05;;;;;;;36.30;33.23;;;9.10;97.10;;;;;;5009703;28;20456;-72
2021/11/14 05:47:34;;;;;;;35.63;32.73;;;9.10;96.90;;;;;;5013717;28;20492;-72
2021/11/14 05:50:01;;;;;;;37.10;33.90;;;9.10;96.40;;;;;;5012985;28;20472;-72
2021/11/14 05:52:28;;;;;;;36.50;33.30;;;9.10;96.40;;;;;;5015100;28;20555;-72
2021/11/14 05:54:55;;;;;;;36.83;33.53;;;9.10;96.20;;;;;;5012812;28;20460;-72
2021/11/14 05:57:22;;;;;;;38.70;35.30;;;9.10;96.00;;;;;;5014840;28;20800;-72
2021/11/14 05:59:56;;;;;;;35.47;32.50;;;9.00;96.30;;;;;;5013736;28;20563;-72
2021/11/14 06:02:34;;;;;;;38.00;34.57;;;9.10;96.20;;;;;;5014421;28;21086;-72
2021/11/14 06:05:11;;;;;;;36.40;33.03;;;9.10;96.30;;;;;;5013194;28;20460;-72
2021/11/14 06:07:38;;;;;;;37.20;33.90;;;9.00;96.50;;;;;;5002782;28;20467;-72
2021/11/14 06:10:06;;;;;;;39.70;36.13;;;9.00;96.70;;;;;;5013358;28;20467;-72
2021/11/14 06:12:33;;;;;;;37.50;34.25;;;9.00;96.70;;;;;;5014860;28;20479;-72
2021/11/14 06:15:00;;;;;;;38.47;35.07;;;9.00;96.50;;;;;;5013126;28;20264;-72
2021/11/14 06:17:27;;;;;;;35.50;32.37;;;9.00;96.70;;;;;;5015164;28;20464;-73
2021/11/14 06:19:54;;;;;;;37.03;33.57;;;9.00;96.70;;;;;;5009047;28;20469;-73
2021/11/14 06:22:22;;;;;;;35.60;32.50;;;9.00;96.70;;;;;;5014625;28;20491;-72
2021/11/14 06:24:49;;;;;;;37.20;34.20;;;9.10;96.40;;;;;;5010221;28;23191;-73
2021/11/14 06:27:16;;;;;;;37.67;34.27;;;9.10;96.40;;;;;;5011652;28;20508;-73
2021/11/14 06:29:44;;;;;;;37.10;33.60;;;9.10;96.50;;;;;;5015133;28;20463;-72
2021/11/14 06:32:11;;;;;;;36.13;32.97;;;9.10;96.50;;;;;;5012551;28;20456;-72
2021/11/14 06:34:37;;;;;;;38.83;35.43;;;9.10;96.50;;;;;;5014430;28;20444;-73
2021/11/14 06:37:05;;;;;;;34.57;31.70;;;9.10;96.30;;;;;;5013389;28;20457;-72
2021/11/14 06:39:34;;;;;;;36.13;32.93;;;9.10;96.30;;;;;;5012733;28;20472;-72
2021/11/14 06:42:01;;;;;;;37.97;34.67;;;9.10;96.20;;;;;;5009986;28;20510;-72
2021/11/14 06:44:27;;;;;;;35.97;32.67;;;9.10;96.40;;;;;;5002681;28;20940;-72
2021/11/14 06:46:55;;;;;;;35.47;32.30;;;9.10;96.40;;;;;;5009628;28;20475;-72
2021/11/14 06:49:22;;;;;;;36.40;33.37;;;9.10;96.40;;;;;;5010482;28;20488;-71
2021/11/14 06:51:49;;;;;;;36.20;33.20;;;9.10;96.30;;;;;;5007249;28;20465;-75
2021/11/14 06:54:16;;;;;;;39.47;36.20;;;9.20;96.20;;;;;;5009287;28;20575;-73
2021/11/14 06:56:45;;;;;;;36.40;33.30;;;9.20;96.20;;;;;;5010083;28;20212;-72
2021/11/14 06:59:12;;;;;;;36.77;33.67;;;9.30;95.80;;;;;;5011694;28;20988;-72
2021/11/14 07:01:39;;;;;;;37.47;34.10;;;9.30;95.80;;;;;;5009563;28;21255;-72
2021/11/14 07:04:06;;;;;;;37.73;34.60;;;9.20;95.90;;;;;;5011026;28;20479;-73
2021/11/14 07:06:32;;;;;;;36.13;33.00;;;9.20;96.00;;;;;;5009810;28;20457;-73
2021/11/14 07:08:59;;;;;;;37.10;33.80;;;9.20;96.00;;;;;;5011092;28;20473;-72
2021/11/14 07:11:26;;;;;;;35.20;32.27;;;9.30;96.00;;;;;;5009875;28;20457;-73
2021/11/14 07:13:55;;;;;;;35.90;33.00;;;9.30;96.00;;;;;;5010431;28;20500;-72
2021/11/14 07:16:22;;;;;;;36.90;33.60;;;9.30;96.30;;;;;;5010009;28;20532;-73
2021/11/14 07:18:49;;;;;;;35.73;32.63;;;9.40;96.20;;;;;;5009572;28;20852;-75
2021/11/14 07:21:16;;;;;;;34.67;31.70;;;9.50;96.00;;;;;;5009999;28;20490;-71
2021/11/14 07:23:44;;;;;;;35.00;31.90;;;9.40;95.70;;;;;;5008295;28;20487;-71
2021/11/14 07:26:11;;;;;;;37.20;34.00;;;9.50;95.70;;;;;;5011290;28;20591;-71
2021/11/14 07:28:38;;;;;;;36.80;33.60;;;9.60;95.40;;;;;;5009318;28;20476;-71
2021/11/14 07:31:06;;;;;;;39.38;35.97;;;9.50;94.80;;;;;;5009533;28;20471;-71
2021/11/14 07:33:33;;;;;;;36.53;33.53;;;9.70;95.00;;;;;;5006364;28;20214;-71
2021/11/14 07:36:00;;;;;;;39.03;35.63;;;9.70;94.40;;;;;;5010743;28;20457;-71
2021/11/14 07:38:28;;;;;;;37.97;34.70;;;9.70;94.60;;;;;;5008854;28;20457;-72
2021/11/14 07:40:55;;;;;;;36.07;32.60;;;9.70;94.70;;;;;;5010350;28;20826;-71
2021/11/14 07:43:22;;;;;;;36.80;33.70;;;9.80;94.80;;;;;;5008393;28;20520;-72
2021/11/14 07:45:49;;;;;;;37.60;34.20;;;9.80;94.80;;;;;;5010331;28;20565;-71
2021/11/14 07:48:17;;;;;;;36.03;33.13;;;9.90;94.40;;;;;;5007574;28;20464;-72
2021/11/14 07:50:44;;;;;;;37.50;34.33;;;9.90;94.20;;;;;;5010063;28;20967;-71
2021/11/14 07:53:11;;;;;;;38.67;35.47;;;9.90;93.70;;;;;;5007450;28;20483;-71
2021/11/14 07:55:38;;;;;;;37.23;34.03;;;9.80;94.00;;;;;;5010190;28;20515;-73
2021/11/14 07:58:06;;;;;;;36.20;33.20;;;9.80;94.40;;;;;;5008194;28;20488;-71
2021/11/14 08:00:34;;;;;;;36.30;33.50;;;9.70;94.20;;;;;;5008704;28;20588;-73
2021/11/14 08:03:01;;;;;;;38.57;35.27;;;9.70;94.20;;;;;;5006356;28;20488;-71
2021/11/14 08:05:30;;;;;;;35.83;32.90;;;9.70;94.30;;;;;;5009564;28;20461;-72
2021/11/14 08:07:57;;;;;;;35.43;32.23;;;9.80;94.00;;;;;;5008445;28;20471;-75
2021/11/14 08:10:26;;;;;;;34.50;31.80;;;9.90;93.40;;;;;;5009206;28;20548;-70
2021/11/14 08:12:53;;;;;;;35.70;32.87;;;9.90;93.40;;;;;;5006611;28;20870;-71
2021/11/14 08:15:21;;;;;;;35.83;32.80;;;9.80;93.60;;;;;;5009228;28;20815;-71
2021/11/14 08:17:48;;;;;;;36.30;33.43;;;10.00;93.00;;;;;;5008039;28;20540;-72
2021/11/14 08:20:16;;;;;;;34.63;31.97;;;10.00;92.70;;;;;;5007723;28;20484;-71
2021/11/14 08:22:44;;;;;;;35.40;32.60;;;10.00;93.00;;;;;;5007992;28;20481;-71
2021/11/14 08:25:13;;;;;;;33.60;31.10;;;10.00;93.10;;;;;;5009253;28;20540;-73
2021/11/14 08:27:40;;;;;;;38.73;35.93;;;9.90;93.00;;;;;;5008132;28;20456;-72
2021/11/14 08:30:10;;;;;;;43.00;39.70;;;10.10;92.90;;;;;;5008208;28;20457;-71
2021/11/14 08:32:37;;;;;;;35.67;32.87;;;10.20;92.30;;;;;;5008168;28;20483;-72
2021/11/14 08:35:06;;;;;;;38.90;35.90;;;10.20;92.20;;;;;;5008875;28;20471;-72
2021/11/14 08:37:33;;;;;;;37.80;34.57;;;10.30;91.80;;;;;;5005877;28;20455;-73
2021/11/14 08:40:02;;;;;;;35.20;32.37;;;10.40;91.80;;;;;;5006229;28;20465;-74
2021/11/14 08:42:28;;;;;;;37.40;34.10;;;10.50;91.10;;;;;;5001877;28;20485;-74
2021/11/14 08:44:55;;;;;;;34.37;31.73;;;10.50;90.70;;;;;;4998994;28;20508;-73
2021/11/14 08:47:22;;;;;;;34.97;32.33;;;10.50;90.20;;;;;;5007709;28;20460;-73
2021/11/14 08:49:49;;;;;;;36.37;33.17;;;10.40;90.80;;;;;;5009066;28;20456;-73
2021/11/14 08:52:16;;;;;;;35.63;32.57;;;10.50;90.80;;;;;;5005776;28;20461;-72
2021/11/14 08:54:44;;;;;;;35.73;33.00;;;10.40;91.10;;;;;;5005443;28;20456;-73
2021/11/14 08:57:17;;;;;;;35.03;32.30;;;10.60;90.90;;;;;;5004542;28;20996;-74
2021/11/14 08:59:44;;;;;;;34.67;31.97;;;10.80;90.60;;;;;;5006945;28;20886;-72
2021/11/14 09:02:11;;;;;;;36.47;33.30;;;10.90;88.60;;;;;;5000354;28;20481;-72
2021/11/14 09:04:38;;;;;;;33.67;31.07;;;11.10;87.90;;;;;;5002899;28;20461;-72
2021/11/14 09:07:06;;;;;;;33.30;30.80;;;11.10;87.30;;;;;;5001663;28;20531;-73
2021/11/14 09:09:34;;;;;;;34.53;31.70;;;11.10;87.30;;;;;;5007891;28;21276;-73
2021/11/14 09:12:01;;;;;;;33.70;31.10;;;11.20;86.10;;;;;;5004898;28;20553;-74
2021/11/14 09:14:30;;;;;;;33.67;31.07;;;11.20;86.20;;;;;;5005885;28;20456;-74
2021/11/14 09:16:57;;;;;;;35.47;32.43;;;11.10;87.00;;;;;;5004191;28;20551;-73
2021/11/14 09:19:24;;;;;;;33.00;30.50;;;11.20;86.50;;;;;;5008249;28;21004;-72
2021/11/14 09:21:52;;;;;;;34.30;31.57;;;11.10;86.40;;;;;;5002131;28;20471;-72
2021/11/14 09:24:20;;;;;;;34.17;31.57;;;11.10;87.30;;;;;;5006534;28;20503;-72
2021/11/14 09:26:47;;;;;;;34.53;31.83;;;11.10;87.00;;;;;;4994523;28;20457;-72
2021/11/14 09:29:14;;;;;;;36.47;33.57;;;11.30;86.00;;;;;;5006558;28;21117;-70
2021/11/14 09:31:44;;;;;;;33.80;31.10;;;11.10;86.10;;;;;;5002786;28;20559;-71
2021/11/14 09:34:12;;;;;;;32.27;29.87;;;11.10;86.40;;;;;;5004669;28;20465;-71
2021/11/14 09:36:39;;;;;;;33.03;30.47;;;11.10;86.00;;;;;;5007096;28;20824;-71
2021/11/14 09:39:12;;;;;;;33.37;30.73;;;11.00;86.40;;;;;;5002330;28;20575;-71
2021/11/14 09:41:42;;;;;;;33.43;30.93;;;11.00;86.40;;;;;;5003312;28;20527;-72
2021/11/14 09:44:10;;;;;;;34.60;31.80;;;11.10;86.80;;;;;;5000392;28;20496;-71
2021/11/14 09:46:39;;;;;;;34.90;32.10;;;11.00;86.60;;;;;;5002613;28;20453;-72
2021/11/14 09:49:09;;;;;;;32.83;30.37;;;11.00;86.80;;;;;;5008064;28;20456;-73
2021/11/14 09:51:37;;;;;;;35.33;32.37;;;11.00;87.00;;;;;;5007067;28;20497;-73
2021/11/14 09:54:04;;;;;;;34.53;31.70;;;11.00;86.40;;;;;;4996805;28;21009;-74
2021/11/14 09:56:34;;;;;;;33.60;30.97;;;10.90;86.50;;;;;;5008459;28;20484;-73
2021/11/14 09:59:01;;;;;;;34.77;31.93;;;11.00;86.80;;;;;;5006878;28;20465;-73
2021/11/14 10:01:28;;;;;;;35.37;32.67;;;10.90;87.00;;;;;;5008488;28;20466;-73
2021/11/14 10:03:54;;;;;;;35.10;32.20;;;11.00;87.30;;;;;;4995098;28;20481;-72
2021/11/14 10:06:23;;;;;;;36.60;33.60;;;11.10;87.20;;;;;;4999029;28;20459;-74
2021/11/14 10:08:50;;;;;;;34.83;32.03;;;11.10;86.50;;;;;;5000509;28;20444;-76
2021/11/14 10:11:17;;;;;;;34.80;32.10;;;11.00;86.50;;;;;;5008097;28;20453;-75
2021/11/14 10:13:48;;;;;;;33.43;30.87;;;11.00;87.00;;;;;;5006678;28;20475;-74
2021/11/14 10:16:18;;;;;;;35.53;32.60;;;11.00;87.30;;;;;;5010040;28;20467;-74
2021/11/14 10:18:51;;;;;;;34.47;31.67;;;11.00;87.20;;;;;;4998596;28;20461;-74
2021/11/14 10:21:18;;;;;;;36.13;33.43;;;11.00;87.40;;;;;;5012006;28;20473;-74
2021/11/14 10:23:47;;;;;;;37.70;34.90;;;11.00;86.50;;;;;;5004146;28;20814;-74
2021/11/14 10:26:13;;;;;;;35.00;32.00;;;10.80;87.50;;;;;;5012081;28;20456;-74
2021/11/14 10:28:42;;;;;;;34.27;31.47;;;10.90;87.70;;;;;;5009402;28;20487;-74
2021/11/14 10:31:09;;;;;;;33.90;31.27;;;11.00;87.00;;;;;;5012231;28;20452;-74
2021/11/14 10:33:37;;;;;;;34.93;32.30;;;11.10;87.00;;;;;;5003941;28;20567;-74
2021/11/14 10:36:07;;;;;;;33.53;30.80;;;11.10;87.40;;;;;;5012631;28;20463;-73
2021/11/14 10:38:38;;;;;;;37.13;34.13;;;11.30;86.90;;;;;;4997278;28;20901;-74
2021/11/14 10:41:08;;;;;;;35.23;32.33;;;11.40;86.30;;;;;;5002437;28;20507;-73
2021/11/14 10:43:38;;;;;;;35.47;32.67;;;11.50;85.80;;;;;;5002015;28;21357;-74
2021/11/14 10:46:14;;;;;;;36.43;33.37;;;11.60;85.50;;;;;;5009941;28;20491;-76
2021/11/14 10:48:41;;;;;;;34.10;31.40;;;11.60;85.30;;;;;;5002715;28;20463;-74
2021/11/14 10:51:11;;;;;;;37.70;34.57;;;11.70;84.80;;;;;;5004377;28;20966;-73
2021/11/14 10:53:40;;;;;;;35.57;32.90;;;11.60;84.80;;;;;;5005808;28;20481;-73
2021/11/14 10:56:11;;;;;;;34.53;31.53;;;11.60;84.80;;;;;;5006898;28;20544;-73
2021/11/14 10:58:40;;;;;;;33.80;30.83;;;11.50;85.10;;;;;;5001393;28;20458;-75
2021/11/14 11:01:09;;;;;;;36.47;33.03;;;11.40;85.60;;;;;;5003976;28;20518;-73
2021/11/14 11:03:38;;;;;;;34.80;31.83;;;11.50;85.30;;;;;;5003174;28;20603;-74
2021/11/14 11:06:06;;;;;;;36.13;33.10;;;11.50;84.80;;;;;;5009563;28;21761;-74
2021/11/14 11:08:33;;;;;;;34.73;31.40;;;11.60;84.60;;;;;;5008715;28;20465;-73
2021/11/14 11:11:03;;;;;;;35.73;32.57;;;11.40;85.30;;;;;;5011179;28;20481;-73
2021/11/14 11:13:34;;;;;;;36.63;33.33;;;11.30;86.00;;;;;;5005746;28;21300;-74
2021/11/14 11:16:04;;;;;;;33.90;31.10;;;11.30;86.40;;;;;;5010284;28;21007;-74
2021/11/14 11:18:32;;;;;;;36.00;32.97;;;11.20;86.60;;;;;;5009068;28;20452;-74
2021/11/14 11:21:02;;;;;;;35.07;32.07;;;11.30;86.40;;;;;;5010007;28;20503;-74
2021/11/14 11:23:31;;;;;;;37.20;33.90;;;11.30;86.10;;;;;;5005954;28;20485;-74
2021/11/14 11:25:59;;;;;;;36.13;32.87;;;11.30;85.70;;;;;;5008673;28;20592;-73
2021/11/14 11:28:28;;;;;;;37.07;33.73;;;11.50;84.70;;;;;;5007079;28;21162;-74
2021/11/14 11:30:59;;;;;;;35.67;32.67;;;11.70;83.90;;;;;;5018064;28;20468;-74
2021/11/14 11:33:29;;;;;;;35.37;32.30;;;11.80;82.80;;;;;;5000840;28;20476;-74
2021/11/14 11:35:57;;;;;;;36.37;33.23;;;11.90;82.90;;;;;;5008859;28;21013;-74
2021/11/14 11:38:27;;;;;;;35.50;32.20;;;11.80;82.90;;;;;;5004717;28;20468;-72
2021/11/14 11:40:54;;;;;;;35.30;32.30;;;11.50;84.00;;;;;;5005818;28;20966;-72
2021/11/14 11:43:21;;;;;;;33.90;31.10;;;11.40;84.40;;;;;;5000506;28;20492;-72
2021/11/14 11:45:50;;;;;;;37.37;34.33;;;11.50;84.40;;;;;;5001302;28;20469;-73
2021/11/14 11:48:22;;;;;;;34.83;31.50;;;11.50;84.10;;;;;;5007836;28;21101;-72
2021/11/14 11:50:51;;;;;;;36.93;33.83;;;11.50;84.70;;;;;;5010654;28;20531;-72
2021/11/14 11:53:23;;;;;;;34.90;32.00;;;11.50;84.30;;;;;;5006475;28;21016;-72
2021/11/14 11:56:03;;;;;;;35.53;32.27;;;11.50;84.70;;;;;;5008518;28;20540;-74
2021/11/14 11:58:40;;;;;;;35.47;32.23;;;11.40;85.10;;;;;;5007187;28;20460;-74
2021/11/14 12:01:18;;;;;;;36.87;33.70;;;11.50;85.10;;;;;;5008081;28;20463;-73
2021/11/14 12:03:46;;;;;;;35.47;32.53;;;11.40;85.00;;;;;;5003660;28;21105;-74
2021/11/14 12:06:18;;;;;;;35.07;32.27;;;11.50;85.40;;;;;;5001193;28;20469;-74
2021/11/14 12:08:47;;;;;;;36.30;33.20;;;11.50;85.40;;;;;;4996048;28;20502;-75
2021/11/14 12:11:29;;;;;;;37.83;34.50;;;11.50;85.20;;;;;;5007333;28;20488;-74
2021/11/14 12:13:57;;;;;;;35.20;32.17;;;11.50;85.30;;;;;;5004443;28;21017;-75
2021/11/14 12:16:30;;;;;;;34.93;32.13;;;11.60;85.30;;;;;;5002489;28;20540;-74
2021/11/14 12:18:59;;;;;;;36.93;33.93;;;11.70;85.30;;;;;;5005308;28;20456;-76
2021/11/14 12:21:28;;;;;;;34.67;31.87;;;11.80;85.00;;;;;;5007974;28;20536;-78
2021/11/14 12:23:58;;;;;;;35.37;32.37;;;11.70;85.20;;;;;;5006039;28;20484;-74
2021/11/14 12:26:32;;;;;;;34.63;31.83;;;11.90;84.80;;;;;;5005980;28;20475;-76
2021/11/14 12:29:04;;;;;;;34.83;31.80;;;12.00;84.20;;;;;;5001879;28;20461;-73
2021/11/14 12:31:34;;;;;;;34.37;31.63;;;12.10;84.30;;;;;;5002056;28;20479;-73
2021/11/14 12:34:11;;;;;;;33.47;30.77;;;12.20;83.20;;;;;;5001277;28;20476;-74
2021/11/14 12:36:41;;;;;;;34.37;31.57;;;12.40;82.00;;;;;;5001989;28;20480;-73
2021/11/14 12:39:13;;;;;;;35.00;32.23;;;12.30;81.70;;;;;;5003156;28;20818;-74